createdAt,value
2022-12-27T00:00:52.663Z,3.50
2022-12-27T00:03:22.971Z,3.50
2022-12-27T00:05:53.015Z,3.50
2022-12-27T00:08:23.048Z,3.50
2022-12-27T00:10:53.049Z,3.40
2022-12-27T00:13:23.891Z,3.40
2022-12-27T00:15:56.517Z,3.40
2022-12-27T00:18:26.507Z,3.30
2022-12-27T00:21:01.740Z,3.20
2022-12-27T00:23:35.130Z,3.30
2022-12-27T00:26:06.174Z,3.10
2022-12-27T00:28:37.582Z,3.10
2022-12-27T00:31:10.535Z,3.10
2022-12-27T00:33:42.205Z,3.10
2022-12-27T00:36:22.387Z,3.10
2022-12-27T00:38:53.228Z,3.00
2022-12-27T00:41:23.813Z,2.90
2022-12-27T00:43:53.905Z,2.80
2022-12-27T00:46:26.628Z,2.90
2022-12-27T00:48:58.725Z,2.80
2022-12-27T00:51:29.383Z,2.70
2022-12-27T00:53:59.611Z,2.60
2022-12-27T00:56:31.429Z,2.40
2022-12-27T00:59:03.393Z,2.50
2022-12-27T01:01:38.891Z,2.50
2022-12-27T01:04:09.585Z,2.40
2022-12-27T01:06:39.668Z,2.40
2022-12-27T01:09:09.846Z,2.30
2022-12-27T01:11:40.035Z,2.30
2022-12-27T01:14:10.149Z,2.30
2022-12-27T01:16:42.902Z,2.20
2022-12-27T01:19:13.238Z,4.50
2022-12-27T01:21:43.567Z,2.10
2022-12-27T01:24:13.654Z,2.00
2022-12-27T01:26:43.722Z,2.00
2022-12-27T01:29:15.217Z,1.90
2022-12-27T01:31:48.595Z,1.80
2022-12-27T01:34:19.724Z,1.80
2022-12-27T01:36:50.648Z,1.70
2022-12-27T01:39:20.666Z,1.70
2022-12-27T01:42:03.119Z,1.60
2022-12-27T01:45:04.093Z,1.60
2022-12-27T01:47:50.579Z,1.60
2022-12-27T01:50:33.679Z,1.50
2022-12-27T01:53:11.061Z,1.50
2022-12-27T01:55:46.892Z,1.40
2022-12-27T01:58:21.799Z,1.30
2022-12-27T02:00:52.636Z,1.30
2022-12-27T02:03:31.429Z,1.40
2022-12-27T02:06:05.195Z,1.30
2022-12-27T02:08:44.957Z,1.30
2022-12-27T02:11:16.637Z,1.20
2022-12-27T02:13:49.068Z,1.20
2022-12-27T02:16:22.055Z,1.20
2022-12-27T02:18:54.970Z,1.00
2022-12-27T02:21:42.802Z,1.10
2022-12-27T02:24:37.899Z,1.10
2022-12-27T02:27:12.395Z,1.00
2022-12-27T02:30:00.600Z,1.00
2022-12-27T02:32:33.743Z,0.90
2022-12-27T02:35:16.100Z,1.00
2022-12-27T02:37:50.785Z,0.90
2022-12-27T02:40:38.316Z,0.90
2022-12-27T02:43:21.527Z,0.90
2022-12-27T02:46:18.458Z,0.80
2022-12-27T02:49:08.419Z,0.80
2022-12-27T02:51:59.368Z,0.70
2022-12-27T02:55:03.943Z,0.60
2022-12-27T02:57:39.191Z,0.60
2022-12-27T03:00:25.649Z,0.60
2022-12-27T03:03:24.338Z,0.50
2022-12-27T03:06:38.584Z,0.50
2022-12-27T03:09:39.950Z,0.40
2022-12-27T03:12:28.050Z,0.30
2022-12-27T03:15:18.658Z,0.30
2022-12-27T03:17:57.587Z,0.20
2022-12-27T03:20:43.065Z,0.10
2022-12-27T03:23:26.753Z,0.10
2022-12-27T03:26:00.786Z,0.00
2022-12-27T03:28:45.925Z,-0.10
2022-12-27T03:31:34.875Z,0.00
2022-12-27T03:34:28.870Z,-0.10
2022-12-27T03:37:18.334Z,-0.20
2022-12-27T03:39:52.637Z,-0.20
2022-12-27T03:42:41.949Z,-0.20
2022-12-27T03:45:12.608Z,-0.20
2022-12-27T03:47:47.604Z,0.90
2022-12-27T03:50:24.182Z,-0.30
2022-12-27T03:53:02.675Z,-0.30
2022-12-27T03:55:33.591Z,-0.40
2022-12-27T03:58:03.842Z,-0.40
2022-12-27T04:00:34.119Z,-0.40
2022-12-27T04:03:04.133Z,-0.50
2022-12-27T04:05:34.223Z,-0.40
2022-12-27T04:08:19.518Z,-0.50
2022-12-27T04:11:02.283Z,-0.50
2022-12-27T04:13:44.772Z,-0.50
2022-12-27T04:16:27.223Z,-0.60
2022-12-27T04:19:09.680Z,-0.70
2022-12-27T04:21:52.112Z,-0.70
2022-12-27T04:24:37.171Z,-0.80
2022-12-27T04:27:19.794Z,-0.90
2022-12-27T04:30:02.268Z,-0.80
2022-12-27T04:32:44.726Z,-0.90
2022-12-27T04:35:14.684Z,-0.90
2022-12-27T04:37:44.647Z,-1.00
2022-12-27T04:40:29.808Z,-1.00
2022-12-27T04:43:12.244Z,-1.10
2022-12-27T04:45:54.732Z,-1.00
2022-12-27T04:48:37.409Z,-1.00
2022-12-27T04:51:20.401Z,-1.10
2022-12-27T04:54:02.892Z,-1.00
2022-12-27T04:56:35.499Z,-1.10
2022-12-27T04:59:17.924Z,-1.20
2022-12-27T05:02:00.663Z,-1.40
2022-12-27T05:04:30.920Z,-1.10
2022-12-27T05:07:21.425Z,-1.20
2022-12-27T05:10:04.283Z,-1.10
2022-12-27T05:12:49.320Z,-1.10
2022-12-27T05:15:19.313Z,-1.00
2022-12-27T05:17:49.272Z,-1.10
2022-12-27T05:20:19.335Z,-1.00
2022-12-27T05:23:01.755Z,-1.10
2022-12-27T05:25:38.638Z,-1.00
2022-12-27T05:28:13.419Z,-0.90
2022-12-27T05:30:45.664Z,-0.80
2022-12-27T05:33:15.676Z,-0.80
2022-12-27T05:35:45.888Z,-0.80
2022-12-27T05:38:15.813Z,-0.90
2022-12-27T05:40:45.791Z,-0.90
2022-12-27T05:43:18.365Z,-0.90
2022-12-27T05:45:48.349Z,-1.00
2022-12-27T05:48:18.430Z,-1.00
2022-12-27T05:50:48.398Z,-0.90
2022-12-27T05:53:18.430Z,-1.00
2022-12-27T05:55:55.739Z,-1.10
2022-12-27T05:58:28.583Z,-1.00
2022-12-27T06:00:59.921Z,-1.00
2022-12-27T06:03:30.461Z,-0.90
2022-12-27T06:06:04.560Z,-1.00
2022-12-27T06:08:35.100Z,-1.00
2022-12-27T06:11:10.566Z,-0.90
2022-12-27T06:13:44.179Z,-0.80
2022-12-27T06:16:15.268Z,-1.30
2022-12-27T06:18:45.704Z,-0.90
2022-12-27T06:21:17.649Z,-1.00
2022-12-27T06:23:49.044Z,-1.10
2022-12-27T06:26:20.985Z,-1.10
2022-12-27T06:28:54.405Z,-1.10
2022-12-27T06:31:25.646Z,-0.90
2022-12-27T06:33:56.659Z,-0.90
2022-12-27T06:36:30.285Z,-0.90
2022-12-27T06:39:01.018Z,-0.90
2022-12-27T06:41:31.002Z,-0.90
2022-12-27T06:44:03.585Z,-0.80
2022-12-27T06:46:33.526Z,-0.90
2022-12-27T06:49:03.537Z,-0.90
2022-12-27T06:51:33.870Z,-0.90
2022-12-27T06:54:03.938Z,-0.90
2022-12-27T06:56:33.956Z,-0.80
2022-12-27T06:59:06.573Z,-0.90
2022-12-27T07:01:36.626Z,-0.90
2022-12-27T07:04:06.911Z,-0.80
2022-12-27T07:06:39.526Z,-0.70
2022-12-27T07:09:09.994Z,-0.80
2022-12-27T07:11:41.475Z,-0.70
2022-12-27T07:14:14.994Z,-1.30
2022-12-27T07:16:44.974Z,-0.50
2022-12-27T07:19:15.447Z,-0.90
2022-12-27T07:21:46.299Z,-0.80
2022-12-27T07:24:16.231Z,-0.70
2022-12-27T07:26:46.322Z,-0.70
2022-12-27T07:29:19.432Z,-0.60
2022-12-27T07:31:52.248Z,-0.60
2022-12-27T07:34:22.295Z,-0.60
2022-12-27T07:36:54.625Z,-0.60
2022-12-27T07:39:27.666Z,-0.60
2022-12-27T07:42:04.773Z,-0.50
2022-12-27T07:44:43.177Z,-0.50
2022-12-27T07:47:13.240Z,-0.50
2022-12-27T07:49:43.284Z,-0.50
2022-12-27T07:52:13.283Z,-0.50
2022-12-27T07:54:43.201Z,-0.50
2022-12-27T07:57:13.305Z,-0.50
2022-12-27T07:59:45.925Z,-0.40
2022-12-27T08:02:16.727Z,-0.40
2022-12-27T08:04:46.791Z,-0.30
2022-12-27T08:07:19.357Z,-0.30
2022-12-27T08:09:51.319Z,-0.30
2022-12-27T08:12:21.666Z,0.90
2022-12-27T08:14:54.181Z,-0.20
2022-12-27T08:17:27.258Z,-0.20
2022-12-27T08:19:57.819Z,-0.10
2022-12-27T08:22:27.760Z,-0.10
2022-12-27T08:24:57.679Z,0.00
2022-12-27T08:27:28.257Z,0.00
2022-12-27T08:30:00.889Z,-0.10
2022-12-27T08:32:31.279Z,0.00
2022-12-27T08:35:18.263Z,0.00
2022-12-27T08:37:51.351Z,0.00
2022-12-27T08:40:21.328Z,0.10
2022-12-27T08:42:51.325Z,0.20
2022-12-27T08:45:23.937Z,0.20
2022-12-27T08:47:54.250Z,0.30
2022-12-27T08:50:27.051Z,0.50
2022-12-27T08:53:00.275Z,0.50
2022-12-27T08:55:30.862Z,0.80
2022-12-27T09:00:34.642Z,0.90
2022-12-27T09:15:46.618Z,1.40
2022-12-27T09:23:17.036Z,1.60
2022-12-27T09:30:51.183Z,1.80
2022-12-27T09:33:21.108Z,1.70
2022-12-27T09:35:51.076Z,1.90
2022-12-27T09:38:21.391Z,2.00
2022-12-27T09:40:56.007Z,2.10
2022-12-27T09:43:29.033Z,2.00
2022-12-27T09:46:02.563Z,2.10
2022-12-27T09:48:35.516Z,2.10
2022-12-27T09:51:09.624Z,2.30
2022-12-27T09:53:45.872Z,2.30
2022-12-27T09:56:21.503Z,2.40
2022-12-27T09:58:54.230Z,2.50
2022-12-27T10:01:34.212Z,2.70
2022-12-27T10:04:05.171Z,2.80
2022-12-27T10:06:55.613Z,2.80
2022-12-27T10:09:37.752Z,2.80
2022-12-27T10:12:16.887Z,2.80
2022-12-27T10:14:59.891Z,2.90
2022-12-27T10:17:52.688Z,2.90
2022-12-27T10:20:31.556Z,3.00
2022-12-27T10:23:06.598Z,3.10
2022-12-27T10:25:38.750Z,3.20
2022-12-27T10:28:17.899Z,3.30
2022-12-27T10:30:48.098Z,3.70
2022-12-27T10:33:24.272Z,3.50
2022-12-27T10:41:03.316Z,3.60
2022-12-27T10:43:39.576Z,3.60
2022-12-27T10:46:19.417Z,3.60
2022-12-27T10:51:52.627Z,3.60
2022-12-27T10:54:26.309Z,3.60
2022-12-27T10:57:08.276Z,3.60
2022-12-27T10:59:38.411Z,3.70
2022-12-27T11:02:20.725Z,3.70
2022-12-27T11:05:03.667Z,4.00
2022-12-27T11:07:35.585Z,4.30
2022-12-27T11:10:16.859Z,4.60
2022-12-27T11:13:01.912Z,4.60
2022-12-27T11:15:35.026Z,4.50
2022-12-27T11:18:13.209Z,4.60
2022-12-27T11:20:50.489Z,4.60
2022-12-27T11:23:22.656Z,4.70
2022-12-27T11:25:56.467Z,4.80
2022-12-27T11:28:34.623Z,4.80
2022-12-27T11:31:06.824Z,4.80
2022-12-27T11:33:40.004Z,4.90
2022-12-27T11:36:15.320Z,4.90
2022-12-27T11:38:48.113Z,5.00
2022-12-27T11:41:27.926Z,5.10
2022-12-27T11:44:03.386Z,5.20
2022-12-27T11:46:41.203Z,5.40
2022-12-27T11:49:19.659Z,5.30
2022-12-27T11:52:17.137Z,5.40
2022-12-27T11:55:16.443Z,5.40
2022-12-27T11:58:10.884Z,5.40
2022-12-27T12:00:50.081Z,5.40
2022-12-27T12:03:53.696Z,5.40
2022-12-27T12:06:34.748Z,5.10
2022-12-27T12:09:23.977Z,5.00
2022-12-27T12:12:07.736Z,3.40
2022-12-27T12:14:53.080Z,4.70
2022-12-27T12:17:38.601Z,4.70
2022-12-27T12:20:50.326Z,4.90
2022-12-27T12:23:30.607Z,4.90
2022-12-27T12:26:20.264Z,5.10
2022-12-27T12:29:36.755Z,5.20
2022-12-27T12:32:29.355Z,5.20
2022-12-27T12:35:35.429Z,5.30
2022-12-27T12:38:13.263Z,5.40
2022-12-27T12:41:15.463Z,5.60
2022-12-27T12:44:19.117Z,5.70
2022-12-27T12:46:59.027Z,5.60
2022-12-27T12:49:47.462Z,5.60
2022-12-27T12:52:33.832Z,5.60
2022-12-27T12:55:32.125Z,5.60
2022-12-27T12:58:19.623Z,5.80
2022-12-27T13:01:06.076Z,5.80
2022-12-27T13:04:15.058Z,5.70
2022-12-27T13:07:09.018Z,5.70
2022-12-27T13:09:51.261Z,5.70
2022-12-27T13:12:27.863Z,5.70
2022-12-27T13:15:21.201Z,5.70
2022-12-27T13:18:05.159Z,5.70
2022-12-27T13:20:56.506Z,5.50
2022-12-27T13:23:41.197Z,5.50
2022-12-27T13:26:15.686Z,5.40
2022-12-27T13:29:00.654Z,5.20
2022-12-27T13:31:41.013Z,5.10
2022-12-27T13:34:31.157Z,5.20
2022-12-27T13:37:18.801Z,5.00
2022-12-27T13:40:10.195Z,4.90
2022-12-27T13:43:25.217Z,4.80
2022-12-27T13:46:09.139Z,4.80
2022-12-27T13:48:55.497Z,4.90
2022-12-27T13:51:44.964Z,5.00
2022-12-27T13:54:36.075Z,5.00
2022-12-27T13:57:20.498Z,4.90
2022-12-27T14:00:04.314Z,4.90
2022-12-27T14:02:58.420Z,4.80
2022-12-27T14:06:13.535Z,4.70
2022-12-27T14:09:12.666Z,4.60
2022-12-27T14:11:57.207Z,4.50
2022-12-27T14:14:29.820Z,4.40
2022-12-27T14:17:17.686Z,4.40
2022-12-27T14:20:20.065Z,4.30
2022-12-27T14:23:19.335Z,4.30
2022-12-27T14:26:25.075Z,4.30
2022-12-27T14:29:33.743Z,4.30
2022-12-27T14:32:50.929Z,4.30
2022-12-27T14:35:42.100Z,4.30
2022-12-27T14:38:33.485Z,4.30
2022-12-27T14:41:28.215Z,4.30
2022-12-27T14:44:31.177Z,4.30
2022-12-27T14:47:31.661Z,4.30
2022-12-27T14:50:45.674Z,4.40
2022-12-27T14:53:57.451Z,4.30
2022-12-27T14:56:35.330Z,4.00
2022-12-27T14:59:19.557Z,4.20
2022-12-27T15:02:00.088Z,4.10
2022-12-27T15:04:55.832Z,4.10
2022-12-27T15:07:49.638Z,4.00
2022-12-27T15:10:33.909Z,3.90
2022-12-27T15:13:15.364Z,3.90
2022-12-27T15:15:57.954Z,3.90
2022-12-27T15:18:44.515Z,3.80
2022-12-27T15:21:25.352Z,3.70
2022-12-27T15:23:57.488Z,3.70
2022-12-27T15:26:38.991Z,3.90
2022-12-27T15:29:25.054Z,3.70
2022-12-27T15:32:03.920Z,3.70
2022-12-27T15:34:53.329Z,3.70
2022-12-27T15:37:53.481Z,3.70
2022-12-27T15:40:48.513Z,3.70
2022-12-27T15:43:34.715Z,3.70
2022-12-27T15:46:18.090Z,3.70
2022-12-27T15:49:06.258Z,3.60
2022-12-27T15:51:46.092Z,3.60
2022-12-27T15:54:31.144Z,3.50
2022-12-27T15:57:35.123Z,3.40
2022-12-27T16:00:17.363Z,3.30
2022-12-27T16:02:56.048Z,3.20
2022-12-27T16:05:52.436Z,3.20
2022-12-27T16:08:31.105Z,3.10
2022-12-27T16:11:02.074Z,3.00
2022-12-27T16:13:46.921Z,2.90
2022-12-27T16:16:32.552Z,2.80
2022-12-27T16:19:17.359Z,2.60
2022-12-27T16:21:48.994Z,2.50
2022-12-27T16:24:22.385Z,2.50
2022-12-27T16:27:02.905Z,2.40
2022-12-27T16:29:38.210Z,2.40
2022-12-27T16:32:21.950Z,2.40
2022-12-27T16:34:55.434Z,2.30
2022-12-27T16:37:32.089Z,2.30
2022-12-27T16:40:24.609Z,2.20
2022-12-27T16:43:34.128Z,2.10
2022-12-27T16:46:22.629Z,2.00
2022-12-27T16:49:23.357Z,2.00
2022-12-27T16:52:06.471Z,2.00
2022-12-27T16:54:51.312Z,2.10
2022-12-27T16:57:46.412Z,2.10
2022-12-27T17:00:46.109Z,2.20
2022-12-27T17:03:57.794Z,2.10
2022-12-27T17:06:57.642Z,2.40
2022-12-27T17:09:57.067Z,2.00
2022-12-27T17:12:29.327Z,1.70
2022-12-27T17:15:07.638Z,2.10
2022-12-27T17:17:38.260Z,2.60
2022-12-27T17:20:16.023Z,2.10
2022-12-27T17:25:27.051Z,1.90
2022-12-27T17:28:08.184Z,1.40
2022-12-27T17:30:48.641Z,1.70
2022-12-27T17:33:29.091Z,1.50
2022-12-27T17:36:21.748Z,1.40
2022-12-27T17:39:12.771Z,1.40
2022-12-27T17:42:07.865Z,1.40
2022-12-27T17:44:42.192Z,1.30
2022-12-27T17:47:38.540Z,1.20
2022-12-27T17:50:15.362Z,2.00
2022-12-27T17:53:28.058Z,1.10
2022-12-27T17:56:16.806Z,1.00
2022-12-27T17:58:50.255Z,1.00
2022-12-27T18:01:21.986Z,1.50
2022-12-27T18:03:52.974Z,0.90
2022-12-27T18:06:23.169Z,0.60
2022-12-27T18:08:54.180Z,0.80
2022-12-27T18:11:28.012Z,0.90
2022-12-27T18:14:01.714Z,0.60
2022-12-27T18:16:42.666Z,0.50
2022-12-27T18:19:22.306Z,0.60
2022-12-27T18:21:58.975Z,0.40
2022-12-27T18:24:31.074Z,0.40
2022-12-27T18:27:10.145Z,0.70
2022-12-27T18:29:43.122Z,0.40
2022-12-27T18:32:17.032Z,0.30
2022-12-27T18:34:52.042Z,0.30
2022-12-27T18:37:24.799Z,0.50
2022-12-27T18:39:57.867Z,0.30
2022-12-27T18:42:32.502Z,0.20
2022-12-27T18:45:08.288Z,0.10
2022-12-27T18:47:42.696Z,0.30
2022-12-27T18:50:20.845Z,0.20
2022-12-27T18:52:55.032Z,0.10
2022-12-27T18:55:28.953Z,0.10
2022-12-27T18:58:06.709Z,0.00
2022-12-27T19:00:50.688Z,-0.10
2022-12-27T19:03:22.908Z,-0.10
2022-12-27T19:06:08.527Z,-0.10
2022-12-27T19:08:41.185Z,-0.20
2022-12-27T19:11:21.036Z,-0.30
2022-12-27T19:13:53.427Z,-0.30
2022-12-27T19:16:30.381Z,-0.10
2022-12-27T19:19:10.510Z,-0.20
2022-12-27T19:21:42.065Z,-0.20
2022-12-27T19:24:33.916Z,0.00
2022-12-27T19:27:17.587Z,-0.20
2022-12-27T19:29:53.286Z,-0.10
2022-12-27T19:32:31.608Z,-0.30
2022-12-27T19:35:03.776Z,-0.50
2022-12-27T19:37:35.813Z,-0.60
2022-12-27T19:40:06.609Z,-0.60
2022-12-27T19:42:37.593Z,-0.60
2022-12-27T19:45:08.551Z,-0.60
2022-12-27T19:47:41.622Z,-0.80
2022-12-27T19:50:13.750Z,-0.70
2022-12-27T19:55:20.896Z,-0.80
2022-12-27T19:57:51.089Z,-1.00
2022-12-27T20:00:24.435Z,-1.20
2022-12-27T20:02:57.975Z,-1.10
2022-12-27T20:06:14.774Z,-0.80
2022-12-27T20:08:26.794Z,-0.90
2022-12-27T20:13:29.728Z,-1.20
2022-12-27T20:16:01.564Z,-1.00
2022-12-27T20:18:34.823Z,-0.80
2022-12-27T20:21:07.876Z,-1.30
2022-12-27T20:23:39.700Z,-0.90
2022-12-27T20:26:10.373Z,-0.90
2022-12-27T20:28:41.262Z,-0.90
2022-12-27T20:31:12.299Z,-0.90
2022-12-27T20:33:44.997Z,-0.80
2022-12-27T20:36:15.232Z,-0.80
2022-12-27T20:38:45.273Z,-0.80
2022-12-27T20:41:18.692Z,-0.90
2022-12-27T20:43:48.998Z,-0.90
2022-12-27T20:48:53.817Z,-1.00
2022-12-27T20:51:27.281Z,-2.50
2022-12-27T20:53:58.650Z,-1.10
2022-12-27T20:58:46.086Z,-1.30
2022-12-27T21:01:18.219Z,-1.10
2022-12-27T21:06:21.883Z,-1.40
2022-12-27T21:08:56.742Z,-1.50
2022-12-27T21:11:30.395Z,-1.50
2022-12-27T21:14:03.887Z,-1.50
2022-12-27T21:16:35.477Z,-1.50
2022-12-27T21:19:06.220Z,-1.50
2022-12-27T21:21:39.064Z,-1.50
2022-12-27T21:24:12.251Z,-1.50
2022-12-27T21:26:43.786Z,-1.30
2022-12-27T21:29:16.601Z,-1.60
2022-12-27T21:34:17.310Z,-1.30
2022-12-27T21:36:47.445Z,-1.50
2022-12-27T21:39:17.439Z,-1.70
2022-12-27T21:41:47.520Z,-1.70
2022-12-27T21:44:22.108Z,-1.20
2022-12-27T21:51:52.948Z,-1.40
2022-12-27T21:56:53.373Z,-1.70
2022-12-27T21:59:26.035Z,-1.20
2022-12-27T22:04:26.919Z,-0.90
2022-12-27T22:06:56.970Z,-1.50
2022-12-27T22:09:26.936Z,-1.40
2022-12-27T22:11:56.896Z,-1.30
2022-12-27T22:14:33.264Z,-1.20
2022-12-27T22:19:37.009Z,-1.30
2022-12-27T22:27:07.554Z,-1.30
2022-12-27T22:29:40.552Z,-1.20
2022-12-27T22:32:10.724Z,-1.50
2022-12-27T22:34:40.742Z,-1.50
2022-12-27T22:44:44.148Z,-1.80
2022-12-27T22:47:29.583Z,-1.40
2022-12-27T22:49:59.948Z,-1.60
2022-12-27T22:52:30.220Z,-1.50
2022-12-27T22:55:05.757Z,-1.70
2022-12-27T22:57:37.148Z,-1.50
2022-12-27T23:00:15.143Z,-1.50
2022-12-27T23:02:45.416Z,-1.60
2022-12-27T23:13:06.333Z,-1.50
2022-12-27T23:15:38.920Z,-1.50
2022-12-27T23:18:08.947Z,-1.60
2022-12-27T23:20:38.966Z,-1.50
2022-12-27T23:23:29.351Z,-1.50
2022-12-27T23:25:59.751Z,-1.50
2022-12-27T23:28:29.720Z,-1.60
2022-12-27T23:31:02.330Z,-1.60
2022-12-27T23:33:32.390Z,-1.60
2022-12-27T23:36:02.719Z,-1.60
2022-12-27T23:38:32.689Z,-1.60
2022-12-27T23:41:04.501Z,-1.60
2022-12-27T23:43:53.806Z,-1.60
2022-12-27T23:46:29.844Z,-1.70
2022-12-27T23:49:01.175Z,-1.60
2022-12-27T23:51:33.024Z,-1.60
2022-12-27T23:54:03.213Z,-1.60
2022-12-27T23:56:35.139Z,-1.60
2022-12-27T23:59:05.884Z,-1.60
